sensor_id;sensor_type;location;lat;lon;timestamp;P1;durP1;ratioP1;P2;durP2;ratioP2
8225;SDS011;4154;48.810;9.012;2022-12-29T00:02:25;1.97;;;1.40;;
8225;SDS011;4154;48.810;9.012;2022-12-29T00:04:51;1.87;;;1.33;;
8225;SDS011;4154;48.810;9.012;2022-12-29T00:07:17;2.37;;;1.50;;
8225;SDS011;4154;48.810;9.012;2022-12-29T00:09:43;2.33;;;1.40;;
8225;SDS011;4154;48.810;9.012;2022-12-29T00:12:08;2.37;;;1.43;;
8225;SDS011;4154;48.810;9.012;2022-12-29T00:14:34;2.50;;;1.50;;
8225;SDS011;4154;48.810;9.012;2022-12-29T00:17:18;1.53;;;1.40;;
8225;SDS011;4154;48.810;9.012;2022-12-29T00:19:44;1.53;;;1.30;;
8225;SDS011;4154;48.810;9.012;2022-12-29T00:22:28;2.70;;;1.30;;
8225;SDS011;4154;48.810;9.012;2022-12-29T00:25:12;1.87;;;1.40;;
8225;SDS011;4154;48.810;9.012;2022-12-29T00:27:57;1.50;;;1.40;;
8225;SDS011;4154;48.810;9.012;2022-12-29T00:30:42;1.60;;;1.50;;
8225;SDS011;4154;48.810;9.012;2022-12-29T00:33:28;3.10;;;1.33;;
8225;SDS011;4154;48.810;9.012;2022-12-29T00:39:02;2.67;;;1.40;;
8225;SDS011;4154;48.810;9.012;2022-12-29T00:41:52;1.47;;;1.30;;
8225;SDS011;4154;48.810;9.012;2022-12-29T00:44:36;1.80;;;1.30;;
8225;SDS011;4154;48.810;9.012;2022-12-29T00:47:02;1.97;;;1.30;;
8225;SDS011;4154;48.810;9.012;2022-12-29T00:49:29;1.83;;;1.33;;
8225;SDS011;4154;48.810;9.012;2022-12-29T00:51:56;2.13;;;1.60;;
8225;SDS011;4154;48.810;9.012;2022-12-29T00:54:42;1.70;;;1.37;;
8225;SDS011;4154;48.810;9.012;2022-12-29T00:57:09;3.40;;;1.60;;
8225;SDS011;4154;48.810;9.012;2022-12-29T00:59:37;1.37;;;1.23;;
8225;SDS011;4154;48.810;9.012;2022-12-29T01:02:04;1.60;;;1.40;;
8225;SDS011;4154;48.810;9.012;2022-12-29T01:04:31;2.47;;;1.40;;
8225;SDS011;4154;48.810;9.012;2022-12-29T01:06:57;2.40;;;1.30;;
8225;SDS011;4154;48.810;9.012;2022-12-29T01:09:22;2.90;;;1.40;;
8225;SDS011;4154;48.810;9.012;2022-12-29T01:12:08;1.60;;;1.50;;
8225;SDS011;4154;48.810;9.012;2022-12-29T01:14:35;1.73;;;1.40;;
8225;SDS011;4154;48.810;9.012;2022-12-29T01:17:01;2.70;;;1.43;;
8225;SDS011;4154;48.810;9.012;2022-12-29T01:19:27;1.40;;;1.30;;
8225;SDS011;4154;48.810;9.012;2022-12-29T01:21:52;2.33;;;1.50;;
8225;SDS011;4154;48.810;9.012;2022-12-29T01:24:19;1.40;;;1.30;;
8225;SDS011;4154;48.810;9.012;2022-12-29T01:26:46;1.80;;;1.30;;
8225;SDS011;4154;48.810;9.012;2022-12-29T01:29:13;2.13;;;1.43;;
8225;SDS011;4154;48.810;9.012;2022-12-29T01:31:39;1.43;;;1.33;;
8225;SDS011;4154;48.810;9.012;2022-12-29T01:34:05;3.07;;;1.50;;
8225;SDS011;4154;48.810;9.012;2022-12-29T01:36:31;1.90;;;1.40;;
8225;SDS011;4154;48.810;9.012;2022-12-29T01:38:58;2.00;;;1.40;;
8225;SDS011;4154;48.810;9.012;2022-12-29T01:41:23;1.63;;;1.20;;
8225;SDS011;4154;48.810;9.012;2022-12-29T01:43:51;2.30;;;1.17;;
8225;SDS011;4154;48.810;9.012;2022-12-29T01:49:15;2.23;;;1.27;;
8225;SDS011;4154;48.810;9.012;2022-12-29T01:51:52;1.73;;;1.20;;
8225;SDS011;4154;48.810;9.012;2022-12-29T01:54:31;2.43;;;1.40;;
8225;SDS011;4154;48.810;9.012;2022-12-29T01:57:06;2.23;;;1.20;;
8225;SDS011;4154;48.810;9.012;2022-12-29T01:59:41;1.40;;;1.10;;
8225;SDS011;4154;48.810;9.012;2022-12-29T02:02:16;2.93;;;1.57;;
8225;SDS011;4154;48.810;9.012;2022-12-29T02:04:43;1.30;;;1.20;;
8225;SDS011;4154;48.810;9.012;2022-12-29T02:07:10;1.47;;;1.30;;
8225;SDS011;4154;48.810;9.012;2022-12-29T02:09:43;1.93;;;1.40;;
8225;SDS011;4154;48.810;9.012;2022-12-29T02:12:12;3.33;;;1.40;;
8225;SDS011;4154;48.810;9.012;2022-12-29T02:14:39;1.60;;;1.40;;
8225;SDS011;4154;48.810;9.012;2022-12-29T02:22:55;1.80;;;1.20;;
8225;SDS011;4154;48.810;9.012;2022-12-29T02:28:53;2.27;;;1.30;;
8225;SDS011;4154;48.810;9.012;2022-12-29T02:31:55;2.60;;;1.20;;
8225;SDS011;4154;48.810;9.012;2022-12-29T02:34:36;2.23;;;1.30;;
8225;SDS011;4154;48.810;9.012;2022-12-29T02:37:46;1.33;;;1.10;;
8225;SDS011;4154;48.810;9.012;2022-12-29T02:40:26;1.60;;;1.13;;
8225;SDS011;4154;48.810;9.012;2022-12-29T02:43:11;2.23;;;1.20;;
8225;SDS011;4154;48.810;9.012;2022-12-29T02:48:46;1.30;;;1.17;;
8225;SDS011;4154;48.810;9.012;2022-12-29T02:51:30;1.37;;;1.20;;
8225;SDS011;4154;48.810;9.012;2022-12-29T02:54:11;1.43;;;1.17;;
8225;SDS011;4154;48.810;9.012;2022-12-29T02:56:55;1.57;;;1.30;;
8225;SDS011;4154;48.810;9.012;2022-12-29T02:59:21;2.57;;;1.30;;
8225;SDS011;4154;48.810;9.012;2022-12-29T03:05:02;1.43;;;0.90;;
8225;SDS011;4154;48.810;9.012;2022-12-29T03:13:14;1.30;;;1.20;;
8225;SDS011;4154;48.810;9.012;2022-12-29T03:19:08;1.90;;;1.20;;
8225;SDS011;4154;48.810;9.012;2022-12-29T03:24:57;1.07;;;1.03;;
8225;SDS011;4154;48.810;9.012;2022-12-29T03:27:35;1.37;;;1.10;;
8225;SDS011;4154;48.810;9.012;2022-12-29T03:30:08;2.23;;;1.30;;
8225;SDS011;4154;48.810;9.012;2022-12-29T03:32:44;1.17;;;1.07;;
8225;SDS011;4154;48.810;9.012;2022-12-29T03:35:17;1.60;;;1.20;;
8225;SDS011;4154;48.810;9.012;2022-12-29T03:38:31;2.17;;;1.10;;
8225;SDS011;4154;48.810;9.012;2022-12-29T03:40:42;1.30;;;1.20;;
8225;SDS011;4154;48.810;9.012;2022-12-29T03:43:13;3.40;;;1.47;;
8225;SDS011;4154;48.810;9.012;2022-12-29T03:45:40;1.13;;;1.00;;
8225;SDS011;4154;48.810;9.012;2022-12-29T03:48:06;1.53;;;1.20;;
8225;SDS011;4154;48.810;9.012;2022-12-29T03:50:31;2.03;;;1.27;;
8225;SDS011;4154;48.810;9.012;2022-12-29T03:52:57;1.47;;;1.20;;
8225;SDS011;4154;48.810;9.012;2022-12-29T03:55:23;3.03;;;1.20;;
8225;SDS011;4154;48.810;9.012;2022-12-29T03:57:49;1.33;;;1.00;;
8225;SDS011;4154;48.810;9.012;2022-12-29T04:00:15;1.30;;;1.20;;
8225;SDS011;4154;48.810;9.012;2022-12-29T04:02:41;1.30;;;1.10;;
8225;SDS011;4154;48.810;9.012;2022-12-29T04:05:07;1.93;;;1.30;;
8225;SDS011;4154;48.810;9.012;2022-12-29T04:07:33;1.30;;;1.20;;
8225;SDS011;4154;48.810;9.012;2022-12-29T04:09:59;2.03;;;1.30;;
8225;SDS011;4154;48.810;9.012;2022-12-29T04:12:24;1.20;;;1.10;;
8225;SDS011;4154;48.810;9.012;2022-12-29T04:14:50;1.37;;;1.20;;
8225;SDS011;4154;48.810;9.012;2022-12-29T04:17:16;1.93;;;1.20;;
8225;SDS011;4154;48.810;9.012;2022-12-29T04:19:41;1.57;;;1.30;;
8225;SDS011;4154;48.810;9.012;2022-12-29T04:22:07;1.53;;;1.20;;
8225;SDS011;4154;48.810;9.012;2022-12-29T04:24:32;2.83;;;1.07;;
8225;SDS011;4154;48.810;9.012;2022-12-29T04:26:58;1.93;;;1.10;;
8225;SDS011;4154;48.810;9.012;2022-12-29T04:29:23;1.40;;;1.10;;
8225;SDS011;4154;48.810;9.012;2022-12-29T04:31:49;1.77;;;1.20;;
8225;SDS011;4154;48.810;9.012;2022-12-29T04:34:22;1.90;;;1.27;;
8225;SDS011;4154;48.810;9.012;2022-12-29T04:36:47;2.47;;;1.30;;
8225;SDS011;4154;48.810;9.012;2022-12-29T04:39:13;2.27;;;1.20;;
8225;SDS011;4154;48.810;9.012;2022-12-29T04:41:38;2.13;;;1.20;;
8225;SDS011;4154;48.810;9.012;2022-12-29T04:44:05;2.50;;;1.20;;
8225;SDS011;4154;48.810;9.012;2022-12-29T04:46:30;1.37;;;1.20;;
8225;SDS011;4154;48.810;9.012;2022-12-29T04:48:56;4.10;;;1.67;;
8225;SDS011;4154;48.810;9.012;2022-12-29T04:51:21;4.43;;;1.17;;
8225;SDS011;4154;48.810;9.012;2022-12-29T04:53:47;2.13;;;1.30;;
8225;SDS011;4154;48.810;9.012;2022-12-29T04:56:13;2.90;;;1.20;;
8225;SDS011;4154;48.810;9.012;2022-12-29T04:58:39;1.97;;;1.33;;
8225;SDS011;4154;48.810;9.012;2022-12-29T05:01:05;1.90;;;1.30;;
8225;SDS011;4154;48.810;9.012;2022-12-29T05:03:30;1.33;;;1.10;;
8225;SDS011;4154;48.810;9.012;2022-12-29T05:05:56;1.87;;;1.40;;
8225;SDS011;4154;48.810;9.012;2022-12-29T05:08:22;3.47;;;1.30;;
8225;SDS011;4154;48.810;9.012;2022-12-29T05:10:51;3.47;;;1.37;;
8225;SDS011;4154;48.810;9.012;2022-12-29T05:13:17;3.27;;;1.50;;
8225;SDS011;4154;48.810;9.012;2022-12-29T05:15:52;3.43;;;1.20;;
8225;SDS011;4154;48.810;9.012;2022-12-29T05:18:19;1.60;;;1.30;;
8225;SDS011;4154;48.810;9.012;2022-12-29T05:20:45;1.57;;;1.40;;
8225;SDS011;4154;48.810;9.012;2022-12-29T05:23:11;2.97;;;1.40;;
8225;SDS011;4154;48.810;9.012;2022-12-29T05:25:51;2.80;;;1.40;;
8225;SDS011;4154;48.810;9.012;2022-12-29T05:28:17;2.97;;;1.50;;
8225;SDS011;4154;48.810;9.012;2022-12-29T05:30:42;1.73;;;1.40;;
8225;SDS011;4154;48.810;9.012;2022-12-29T05:33:08;1.77;;;1.40;;
8225;SDS011;4154;48.810;9.012;2022-12-29T05:35:36;3.37;;;1.33;;
8225;SDS011;4154;48.810;9.012;2022-12-29T05:38:02;2.70;;;1.50;;
8225;SDS011;4154;48.810;9.012;2022-12-29T05:40:27;2.03;;;1.30;;
8225;SDS011;4154;48.810;9.012;2022-12-29T05:42:53;5.20;;;1.77;;
8225;SDS011;4154;48.810;9.012;2022-12-29T05:45:18;1.53;;;1.43;;
8225;SDS011;4154;48.810;9.012;2022-12-29T05:47:44;1.40;;;1.30;;
8225;SDS011;4154;48.810;9.012;2022-12-29T05:50:10;3.20;;;1.53;;
8225;SDS011;4154;48.810;9.012;2022-12-29T05:52:35;4.30;;;1.60;;
8225;SDS011;4154;48.810;9.012;2022-12-29T05:55:01;1.97;;;1.40;;
8225;SDS011;4154;48.810;9.012;2022-12-29T05:57:26;3.13;;;1.60;;
8225;SDS011;4154;48.810;9.012;2022-12-29T05:59:52;2.90;;;1.70;;
8225;SDS011;4154;48.810;9.012;2022-12-29T06:02:18;2.53;;;1.23;;
8225;SDS011;4154;48.810;9.012;2022-12-29T06:04:43;2.73;;;1.40;;
8225;SDS011;4154;48.810;9.012;2022-12-29T06:07:09;4.30;;;1.60;;
8225;SDS011;4154;48.810;9.012;2022-12-29T06:09:35;2.67;;;1.37;;
8225;SDS011;4154;48.810;9.012;2022-12-29T06:12:00;1.97;;;1.40;;
8225;SDS011;4154;48.810;9.012;2022-12-29T06:14:39;2.13;;;1.40;;
8225;SDS011;4154;48.810;9.012;2022-12-29T06:17:05;2.27;;;1.60;;
8225;SDS011;4154;48.810;9.012;2022-12-29T06:19:30;1.70;;;1.50;;
8225;SDS011;4154;48.810;9.012;2022-12-29T06:21:56;2.33;;;1.53;;
8225;SDS011;4154;48.810;9.012;2022-12-29T06:24:22;2.77;;;1.43;;
8225;SDS011;4154;48.810;9.012;2022-12-29T06:26:48;2.33;;;1.53;;
8225;SDS011;4154;48.810;9.012;2022-12-29T06:29:13;2.60;;;1.50;;
8225;SDS011;4154;48.810;9.012;2022-12-29T06:31:42;1.63;;;1.50;;
8225;SDS011;4154;48.810;9.012;2022-12-29T06:34:27;1.87;;;1.50;;
8225;SDS011;4154;48.810;9.012;2022-12-29T06:36:53;2.10;;;1.50;;
8225;SDS011;4154;48.810;9.012;2022-12-29T06:39:19;2.90;;;1.53;;
8225;SDS011;4154;48.810;9.012;2022-12-29T06:41:45;2.00;;;1.50;;
8225;SDS011;4154;48.810;9.012;2022-12-29T06:44:10;3.07;;;1.60;;
8225;SDS011;4154;48.810;9.012;2022-12-29T06:46:36;4.77;;;1.73;;
8225;SDS011;4154;48.810;9.012;2022-12-29T06:49:01;1.93;;;1.40;;
8225;SDS011;4154;48.810;9.012;2022-12-29T06:51:27;2.60;;;1.77;;
8225;SDS011;4154;48.810;9.012;2022-12-29T06:53:53;2.07;;;1.33;;
8225;SDS011;4154;48.810;9.012;2022-12-29T06:56:18;2.97;;;1.40;;
8225;SDS011;4154;48.810;9.012;2022-12-29T06:58:44;2.03;;;1.47;;
8225;SDS011;4154;48.810;9.012;2022-12-29T07:01:10;1.30;;;1.20;;
8225;SDS011;4154;48.810;9.012;2022-12-29T07:03:36;2.40;;;1.60;;
8225;SDS011;4154;48.810;9.012;2022-12-29T07:06:01;1.50;;;1.40;;
8225;SDS011;4154;48.810;9.012;2022-12-29T07:08:27;3.37;;;1.60;;
8225;SDS011;4154;48.810;9.012;2022-12-29T07:10:53;1.47;;;1.20;;
8225;SDS011;4154;48.810;9.012;2022-12-29T07:13:19;1.70;;;1.40;;
8225;SDS011;4154;48.810;9.012;2022-12-29T07:15:44;2.63;;;1.47;;
8225;SDS011;4154;48.810;9.012;2022-12-29T07:18:13;1.77;;;1.53;;
8225;SDS011;4154;48.810;9.012;2022-12-29T07:20:40;2.07;;;1.60;;
8225;SDS011;4154;48.810;9.012;2022-12-29T07:23:05;3.23;;;1.70;;
8225;SDS011;4154;48.810;9.012;2022-12-29T07:25:31;4.27;;;1.50;;
8225;SDS011;4154;48.810;9.012;2022-12-29T07:27:57;1.83;;;1.50;;
8225;SDS011;4154;48.810;9.012;2022-12-29T07:30:22;2.17;;;1.60;;
8225;SDS011;4154;48.810;9.012;2022-12-29T07:32:48;2.63;;;1.80;;
8225;SDS011;4154;48.810;9.012;2022-12-29T07:35:14;4.77;;;2.00;;
8225;SDS011;4154;48.810;9.012;2022-12-29T07:37:39;2.13;;;1.50;;
8225;SDS011;4154;48.810;9.012;2022-12-29T07:40:06;2.17;;;1.50;;
8225;SDS011;4154;48.810;9.012;2022-12-29T07:42:34;1.70;;;1.60;;
8225;SDS011;4154;48.810;9.012;2022-12-29T07:44:59;2.10;;;1.60;;
8225;SDS011;4154;48.810;9.012;2022-12-29T07:47:25;2.63;;;1.50;;
8225;SDS011;4154;48.810;9.012;2022-12-29T07:49:51;2.10;;;1.60;;
8225;SDS011;4154;48.810;9.012;2022-12-29T07:52:17;2.37;;;1.60;;
8225;SDS011;4154;48.810;9.012;2022-12-29T07:54:42;2.20;;;1.40;;
8225;SDS011;4154;48.810;9.012;2022-12-29T07:57:08;3.37;;;1.60;;
8225;SDS011;4154;48.810;9.012;2022-12-29T07:59:34;2.50;;;1.40;;
8225;SDS011;4154;48.810;9.012;2022-12-29T08:02:00;2.03;;;1.40;;
8225;SDS011;4154;48.810;9.012;2022-12-29T08:04:26;1.80;;;1.40;;
8225;SDS011;4154;48.810;9.012;2022-12-29T08:06:51;1.60;;;1.50;;
8225;SDS011;4154;48.810;9.012;2022-12-29T08:09:17;2.00;;;1.43;;
8225;SDS011;4154;48.810;9.012;2022-12-29T08:11:43;2.07;;;1.40;;
8225;SDS011;4154;48.810;9.012;2022-12-29T08:14:09;1.67;;;1.50;;
8225;SDS011;4154;48.810;9.012;2022-12-29T08:16:35;1.97;;;1.63;;
8225;SDS011;4154;48.810;9.012;2022-12-29T08:19:01;3.13;;;1.53;;
8225;SDS011;4154;48.810;9.012;2022-12-29T08:21:28;1.50;;;1.40;;
8225;SDS011;4154;48.810;9.012;2022-12-29T08:23:54;2.60;;;1.60;;
8225;SDS011;4154;48.810;9.012;2022-12-29T08:26:20;2.00;;;1.57;;
8225;SDS011;4154;48.810;9.012;2022-12-29T08:28:46;1.77;;;1.43;;
8225;SDS011;4154;48.810;9.012;2022-12-29T08:31:12;2.97;;;1.60;;
8225;SDS011;4154;48.810;9.012;2022-12-29T08:33:37;1.90;;;1.50;;
8225;SDS011;4154;48.810;9.012;2022-12-29T08:36:04;1.50;;;1.40;;
8225;SDS011;4154;48.810;9.012;2022-12-29T08:38:32;2.20;;;1.50;;
8225;SDS011;4154;48.810;9.012;2022-12-29T08:40:58;1.93;;;1.33;;
8225;SDS011;4154;48.810;9.012;2022-12-29T08:43:26;2.63;;;1.57;;
8225;SDS011;4154;48.810;9.012;2022-12-29T08:45:53;1.70;;;1.57;;
8225;SDS011;4154;48.810;9.012;2022-12-29T08:48:19;2.60;;;1.60;;
8225;SDS011;4154;48.810;9.012;2022-12-29T08:50:47;1.67;;;1.40;;
8225;SDS011;4154;48.810;9.012;2022-12-29T08:53:13;1.87;;;1.50;;
8225;SDS011;4154;48.810;9.012;2022-12-29T08:55:39;2.00;;;1.43;;
8225;SDS011;4154;48.810;9.012;2022-12-29T08:58:05;1.77;;;1.33;;
8225;SDS011;4154;48.810;9.012;2022-12-29T09:00:31;3.20;;;1.40;;
8225;SDS011;4154;48.810;9.012;2022-12-29T09:02:57;2.03;;;1.30;;
8225;SDS011;4154;48.810;9.012;2022-12-29T09:05:22;2.37;;;1.43;;
8225;SDS011;4154;48.810;9.012;2022-12-29T09:07:49;3.60;;;1.40;;
8225;SDS011;4154;48.810;9.012;2022-12-29T09:10:15;1.80;;;1.30;;
8225;SDS011;4154;48.810;9.012;2022-12-29T09:12:40;2.17;;;1.50;;
8225;SDS011;4154;48.810;9.012;2022-12-29T09:15:06;2.20;;;1.30;;
8225;SDS011;4154;48.810;9.012;2022-12-29T09:17:33;2.23;;;1.30;;
8225;SDS011;4154;48.810;9.012;2022-12-29T09:20:12;1.80;;;1.20;;
8225;SDS011;4154;48.810;9.012;2022-12-29T09:22:41;2.13;;;1.47;;
8225;SDS011;4154;48.810;9.012;2022-12-29T09:25:07;1.40;;;1.30;;
8225;SDS011;4154;48.810;9.012;2022-12-29T09:27:34;2.03;;;1.30;;
8225;SDS011;4154;48.810;9.012;2022-12-29T09:30:01;2.43;;;1.50;;
8225;SDS011;4154;48.810;9.012;2022-12-29T09:32:29;1.90;;;1.60;;
8225;SDS011;4154;48.810;9.012;2022-12-29T09:34:54;1.60;;;1.50;;
8225;SDS011;4154;48.810;9.012;2022-12-29T09:37:20;2.90;;;1.50;;
8225;SDS011;4154;48.810;9.012;2022-12-29T09:39:46;1.60;;;1.50;;
8225;SDS011;4154;48.810;9.012;2022-12-29T09:42:14;2.43;;;1.40;;
8225;SDS011;4154;48.810;9.012;2022-12-29T09:45:14;2.37;;;1.40;;
8225;SDS011;4154;48.810;9.012;2022-12-29T09:48:07;2.30;;;1.60;;
8225;SDS011;4154;48.810;9.012;2022-12-29T09:50:47;3.83;;;1.50;;
8225;SDS011;4154;48.810;9.012;2022-12-29T09:55:59;1.57;;;1.40;;
8225;SDS011;4154;48.810;9.012;2022-12-29T09:58:38;1.77;;;1.43;;
8225;SDS011;4154;48.810;9.012;2022-12-29T10:01:16;2.60;;;1.20;;
8225;SDS011;4154;48.810;9.012;2022-12-29T10:04:02;1.40;;;1.23;;
8225;SDS011;4154;48.810;9.012;2022-12-29T10:12:30;1.40;;;1.30;;
8225;SDS011;4154;48.810;9.012;2022-12-29T10:24:07;2.47;;;1.20;;
8225;SDS011;4154;48.810;9.012;2022-12-29T10:26:39;2.93;;;1.20;;
8225;SDS011;4154;48.810;9.012;2022-12-29T10:29:18;1.70;;;1.40;;
8225;SDS011;4154;48.810;9.012;2022-12-29T10:31:59;2.75;;;1.50;;
8225;SDS011;4154;48.810;9.012;2022-12-29T10:40:00;1.70;;;1.27;;
8225;SDS011;4154;48.810;9.012;2022-12-29T10:42:57;2.10;;;1.40;;
8225;SDS011;4154;48.810;9.012;2022-12-29T10:45:29;1.45;;;1.27;;
8225;SDS011;4154;48.810;9.012;2022-12-29T10:48:00;3.85;;;1.50;;
8225;SDS011;4154;48.810;9.012;2022-12-29T10:50:40;3.15;;;1.50;;
8225;SDS011;4154;48.810;9.012;2022-12-29T10:53:07;2.30;;;1.30;;
8225;SDS011;4154;48.810;9.012;2022-12-29T10:55:45;1.67;;;1.33;;
8225;SDS011;4154;48.810;9.012;2022-12-29T10:58:12;2.25;;;1.55;;
8225;SDS011;4154;48.810;9.012;2022-12-29T11:00:50;2.30;;;1.42;;
8225;SDS011;4154;48.810;9.012;2022-12-29T11:03:25;2.03;;;1.33;;
8225;SDS011;4154;48.810;9.012;2022-12-29T11:06:40;1.17;;;1.02;;
8225;SDS011;4154;48.810;9.012;2022-12-29T11:09:20;1.30;;;1.20;;
8225;SDS011;4154;48.810;9.012;2022-12-29T11:11:53;2.75;;;1.30;;
8225;SDS011;4154;48.810;9.012;2022-12-29T11:14:20;1.73;;;1.20;;
8225;SDS011;4154;48.810;9.012;2022-12-29T11:16:57;2.07;;;1.37;;
8225;SDS011;4154;48.810;9.012;2022-12-29T11:19:31;2.00;;;1.40;;
8225;SDS011;4154;48.810;9.012;2022-12-29T11:22:12;1.63;;;1.38;;
8225;SDS011;4154;48.810;9.012;2022-12-29T11:24:51;2.15;;;1.30;;
8225;SDS011;4154;48.810;9.012;2022-12-29T11:27:19;3.20;;;1.23;;
8225;SDS011;4154;48.810;9.012;2022-12-29T11:29:51;1.20;;;1.10;;
8225;SDS011;4154;48.810;9.012;2022-12-29T11:32:19;2.37;;;1.20;;
8225;SDS011;4154;48.810;9.012;2022-12-29T11:34:47;2.83;;;1.13;;
8225;SDS011;4154;48.810;9.012;2022-12-29T11:37:14;2.20;;;1.20;;
8225;SDS011;4154;48.810;9.012;2022-12-29T11:39:50;1.65;;;1.20;;
8225;SDS011;4154;48.810;9.012;2022-12-29T11:42:17;1.52;;;1.00;;
8225;SDS011;4154;48.810;9.012;2022-12-29T11:44:49;0.98;;;0.60;;
8225;SDS011;4154;48.810;9.012;2022-12-29T11:47:27;1.60;;;0.90;;
8225;SDS011;4154;48.810;9.012;2022-12-29T11:49:58;0.82;;;0.73;;
8225;SDS011;4154;48.810;9.012;2022-12-29T11:52:32;1.70;;;1.00;;
8225;SDS011;4154;48.810;9.012;2022-12-29T11:55:04;1.15;;;0.73;;
8225;SDS011;4154;48.810;9.012;2022-12-29T11:57:42;1.08;;;0.80;;
8225;SDS011;4154;48.810;9.012;2022-12-29T12:00:16;1.60;;;1.10;;
8225;SDS011;4154;48.810;9.012;2022-12-29T12:08:39;1.30;;;1.20;;
8225;SDS011;4154;48.810;9.012;2022-12-29T12:11:24;1.10;;;1.00;;
8225;SDS011;4154;48.810;9.012;2022-12-29T12:17:23;1.33;;;1.10;;
8225;SDS011;4154;48.810;9.012;2022-12-29T12:20:34;1.40;;;1.30;;
8225;SDS011;4154;48.810;9.012;2022-12-29T12:23:26;2.03;;;1.30;;
8225;SDS011;4154;48.810;9.012;2022-12-29T12:26:22;1.50;;;1.40;;
8225;SDS011;4154;48.810;9.012;2022-12-29T12:31:50;2.60;;;1.70;;
8225;SDS011;4154;48.810;9.012;2022-12-29T12:34:24;1.37;;;1.20;;
8225;SDS011;4154;48.810;9.012;2022-12-29T12:37:33;1.60;;;1.43;;
8225;SDS011;4154;48.810;9.012;2022-12-29T12:40:39;2.00;;;1.60;;
8225;SDS011;4154;48.810;9.012;2022-12-29T12:46:13;2.13;;;1.40;;
8225;SDS011;4154;48.810;9.012;2022-12-29T12:52:13;2.55;;;1.50;;
8225;SDS011;4154;48.810;9.012;2022-12-29T12:54:59;1.60;;;1.50;;
8225;SDS011;4154;48.810;9.012;2022-12-29T12:57:59;1.70;;;1.60;;
8225;SDS011;4154;48.810;9.012;2022-12-29T13:03:58;1.43;;;1.30;;
8225;SDS011;4154;48.810;9.012;2022-12-29T13:07:07;2.33;;;1.40;;
8225;SDS011;4154;48.810;9.012;2022-12-29T13:13:13;1.70;;;1.20;;
8225;SDS011;4154;48.810;9.012;2022-12-29T13:19:08;2.00;;;1.40;;
8225;SDS011;4154;48.810;9.012;2022-12-29T13:22:09;3.07;;;1.40;;
8225;SDS011;4154;48.810;9.012;2022-12-29T13:30:57;2.13;;;1.50;;
8225;SDS011;4154;48.810;9.012;2022-12-29T13:36:33;1.92;;;1.40;;
8225;SDS011;4154;48.810;9.012;2022-12-29T13:39:13;2.75;;;1.60;;
8225;SDS011;4154;48.810;9.012;2022-12-29T13:41:42;1.95;;;1.23;;
8225;SDS011;4154;48.810;9.012;2022-12-29T13:44:21;2.03;;;1.40;;
8225;SDS011;4154;48.810;9.012;2022-12-29T13:46:56;2.73;;;1.40;;
8225;SDS011;4154;48.810;9.012;2022-12-29T13:49:31;1.30;;;1.20;;
8225;SDS011;4154;48.810;9.012;2022-12-29T13:52:03;1.23;;;1.13;;
8225;SDS011;4154;48.810;9.012;2022-12-29T13:55:18;1.63;;;1.37;;
8225;SDS011;4154;48.810;9.012;2022-12-29T13:58:12;1.70;;;1.37;;
8225;SDS011;4154;48.810;9.012;2022-12-29T14:01:49;1.70;;;1.40;;
8225;SDS011;4154;48.810;9.012;2022-12-29T14:03:59;1.48;;;1.30;;
8225;SDS011;4154;48.810;9.012;2022-12-29T14:06:34;2.90;;;1.43;;
8225;SDS011;4154;48.810;9.012;2022-12-29T14:09:05;1.88;;;1.33;;
8225;SDS011;4154;48.810;9.012;2022-12-29T14:12:20;1.43;;;1.33;;
8225;SDS011;4154;48.810;9.012;2022-12-29T14:17:36;1.60;;;1.40;;
8225;SDS011;4154;48.810;9.012;2022-12-29T14:20:05;1.75;;;1.60;;
8225;SDS011;4154;48.810;9.012;2022-12-29T14:22:56;3.13;;;1.40;;
8225;SDS011;4154;48.810;9.012;2022-12-29T14:28:30;2.97;;;1.57;;
8225;SDS011;4154;48.810;9.012;2022-12-29T14:34:14;1.90;;;1.47;;
8225;SDS011;4154;48.810;9.012;2022-12-29T14:49:55;1.57;;;1.47;;
8225;SDS011;4154;48.810;9.012;2022-12-29T14:52:30;2.20;;;1.50;;
8225;SDS011;4154;48.810;9.012;2022-12-29T14:54:57;2.43;;;1.60;;
8225;SDS011;4154;48.810;9.012;2022-12-29T14:58:14;2.23;;;1.43;;
8225;SDS011;4154;48.810;9.012;2022-12-29T15:00:47;1.93;;;1.40;;
8225;SDS011;4154;48.810;9.012;2022-12-29T15:08:24;1.47;;;1.20;;
8225;SDS011;4154;48.810;9.012;2022-12-29T15:17:08;3.03;;;1.37;;
8225;SDS011;4154;48.810;9.012;2022-12-29T15:19:48;2.13;;;1.50;;
8225;SDS011;4154;48.810;9.012;2022-12-29T15:22:14;2.43;;;1.93;;
8225;SDS011;4154;48.810;9.012;2022-12-29T15:24:41;3.60;;;1.70;;
8225;SDS011;4154;48.810;9.012;2022-12-29T15:27:10;2.10;;;1.90;;
8225;SDS011;4154;48.810;9.012;2022-12-29T15:29:40;2.77;;;1.60;;
8225;SDS011;4154;48.810;9.012;2022-12-29T15:32:14;2.27;;;1.80;;
8225;SDS011;4154;48.810;9.012;2022-12-29T15:34:42;3.30;;;1.80;;
8225;SDS011;4154;48.810;9.012;2022-12-29T15:37:09;3.53;;;1.60;;
8225;SDS011;4154;48.810;9.012;2022-12-29T15:39:43;2.33;;;0.90;;
8225;SDS011;4154;48.810;9.012;2022-12-29T15:45:11;0.80;;;0.80;;
8225;SDS011;4154;48.810;9.012;2022-12-29T15:47:39;1.10;;;1.00;;
8225;SDS011;4154;48.810;9.012;2022-12-29T15:50:12;0.80;;;0.80;;
8225;SDS011;4154;48.810;9.012;2022-12-29T15:52:45;1.10;;;1.00;;
8225;SDS011;4154;48.810;9.012;2022-12-29T15:55:18;0.90;;;0.80;;
8225;SDS011;4154;48.810;9.012;2022-12-29T15:57:51;0.97;;;0.90;;
8225;SDS011;4154;48.810;9.012;2022-12-29T16:00:27;1.67;;;1.00;;
8225;SDS011;4154;48.810;9.012;2022-12-29T16:03:00;2.00;;;1.07;;
8225;SDS011;4154;48.810;9.012;2022-12-29T16:05:36;1.67;;;0.90;;
8225;SDS011;4154;48.810;9.012;2022-12-29T16:08:15;1.10;;;1.00;;
8225;SDS011;4154;48.810;9.012;2022-12-29T16:10:58;2.13;;;1.30;;
8225;SDS011;4154;48.810;9.012;2022-12-29T16:13:30;3.00;;;2.10;;
8225;SDS011;4154;48.810;9.012;2022-12-29T16:16:18;2.40;;;2.00;;
8225;SDS011;4154;48.810;9.012;2022-12-29T16:18:50;1.23;;;1.00;;
8225;SDS011;4154;48.810;9.012;2022-12-29T16:21:19;0.90;;;0.90;;
8225;SDS011;4154;48.810;9.012;2022-12-29T16:24:10;0.63;;;0.63;;
8225;SDS011;4154;48.810;9.012;2022-12-29T16:26:45;1.00;;;0.90;;
8225;SDS011;4154;48.810;9.012;2022-12-29T16:29:17;1.00;;;0.70;;
8225;SDS011;4154;48.810;9.012;2022-12-29T16:31:49;1.80;;;1.70;;
8225;SDS011;4154;48.810;9.012;2022-12-29T16:34:22;1.80;;;1.70;;
8225;SDS011;4154;48.810;9.012;2022-12-29T16:36:56;1.47;;;1.37;;
8225;SDS011;4154;48.810;9.012;2022-12-29T16:39:49;2.23;;;1.63;;
8225;SDS011;4154;48.810;9.012;2022-12-29T16:47:49;1.20;;;1.10;;
8225;SDS011;4154;48.810;9.012;2022-12-29T16:50:50;0.70;;;0.70;;
8225;SDS011;4154;48.810;9.012;2022-12-29T16:53:36;2.87;;;1.10;;
8225;SDS011;4154;48.810;9.012;2022-12-29T16:56:07;1.57;;;0.60;;
8225;SDS011;4154;48.810;9.012;2022-12-29T16:58:40;0.60;;;0.60;;
8225;SDS011;4154;48.810;9.012;2022-12-29T17:01:11;0.60;;;0.50;;
8225;SDS011;4154;48.810;9.012;2022-12-29T17:03:44;0.90;;;0.77;;
8225;SDS011;4154;48.810;9.012;2022-12-29T17:06:17;2.07;;;0.70;;
8225;SDS011;4154;48.810;9.012;2022-12-29T17:08:45;0.90;;;0.60;;
8225;SDS011;4154;48.810;9.012;2022-12-29T17:11:29;1.47;;;1.07;;
8225;SDS011;4154;48.810;9.012;2022-12-29T17:14:18;1.20;;;1.00;;
8225;SDS011;4154;48.810;9.012;2022-12-29T17:16:53;0.80;;;0.80;;
8225;SDS011;4154;48.810;9.012;2022-12-29T17:19:20;1.43;;;1.10;;
8225;SDS011;4154;48.810;9.012;2022-12-29T17:21:55;1.07;;;0.97;;
8225;SDS011;4154;48.810;9.012;2022-12-29T17:24:20;1.10;;;1.00;;
8225;SDS011;4154;48.810;9.012;2022-12-29T17:26:50;1.20;;;1.10;;
8225;SDS011;4154;48.810;9.012;2022-12-29T17:29:29;1.33;;;1.00;;
8225;SDS011;4154;48.810;9.012;2022-12-29T17:32:02;1.47;;;1.37;;
8225;SDS011;4154;48.810;9.012;2022-12-29T17:34:31;1.30;;;1.20;;
8225;SDS011;4154;48.810;9.012;2022-12-29T17:36:58;2.90;;;1.70;;
8225;SDS011;4154;48.810;9.012;2022-12-29T17:39:24;1.70;;;1.60;;
8225;SDS011;4154;48.810;9.012;2022-12-29T17:41:49;3.53;;;2.70;;
8225;SDS011;4154;48.810;9.012;2022-12-29T17:44:19;9.93;;;6.57;;
8225;SDS011;4154;48.810;9.012;2022-12-29T17:46:46;7.43;;;5.70;;
8225;SDS011;4154;48.810;9.012;2022-12-29T17:49:13;5.40;;;4.23;;
8225;SDS011;4154;48.810;9.012;2022-12-29T17:51:42;3.03;;;2.60;;
8225;SDS011;4154;48.810;9.012;2022-12-29T17:54:17;2.20;;;2.00;;
8225;SDS011;4154;48.810;9.012;2022-12-29T17:56:47;1.97;;;1.77;;
8225;SDS011;4154;48.810;9.012;2022-12-29T17:59:13;2.07;;;1.70;;
8225;SDS011;4154;48.810;9.012;2022-12-29T18:01:40;1.83;;;1.73;;
8225;SDS011;4154;48.810;9.012;2022-12-29T18:04:19;2.10;;;1.63;;